createdAt,value
2019-05-02T00:01:42.238Z,10.95
2019-05-02T00:04:12.424Z,10.93
2019-05-02T00:06:38.197Z,10.92
2019-05-02T00:09:09.074Z,10.87
2019-05-02T00:11:35.248Z,10.81
2019-05-02T00:14:01.923Z,10.83
2019-05-02T00:16:28.122Z,10.80
2019-05-02T00:18:54.480Z,10.84
2019-05-02T00:21:20.584Z,10.80
2019-05-02T00:23:46.606Z,10.81
2019-05-02T00:26:12.833Z,10.84
2019-05-02T00:28:43.018Z,10.77
2019-05-02T00:31:11.507Z,10.78
2019-05-02T00:33:35.956Z,10.77
2019-05-02T00:36:02.236Z,10.73
2019-05-02T00:38:33.318Z,10.60
2019-05-02T00:40:57.447Z,10.58
2019-05-02T00:43:29.075Z,10.56
2019-05-02T00:45:55.031Z,10.56
2019-05-02T00:48:23.257Z,10.62
2019-05-02T00:50:50.650Z,10.66
2019-05-02T00:53:17.218Z,10.65
2019-05-02T00:55:43.231Z,10.71
2019-05-02T00:58:09.257Z,10.72
2019-05-02T01:00:35.789Z,10.76
2019-05-02T01:03:01.770Z,10.76
2019-05-02T01:05:27.936Z,10.71
2019-05-02T01:07:56.056Z,10.53
2019-05-02T01:10:22.505Z,10.53
2019-05-02T01:12:48.669Z,10.55
2019-05-02T01:15:14.705Z,10.55
2019-05-02T01:17:40.812Z,10.58
2019-05-02T01:20:07.453Z,10.46
2019-05-02T01:22:33.518Z,10.44
2019-05-02T01:25:00.726Z,10.47
2019-05-02T01:27:26.683Z,10.43
2019-05-02T01:29:52.975Z,10.29
2019-05-02T01:32:19.115Z,10.34
2019-05-02T01:34:49.109Z,10.38
2019-05-02T01:37:20.979Z,10.41
2019-05-02T01:40:01.335Z,10.39
2019-05-02T01:42:39.300Z,10.32
2019-05-02T01:44:55.326Z,10.36
2019-05-02T01:47:21.350Z,10.33
2019-05-02T01:49:47.371Z,10.35
2019-05-02T01:52:13.500Z,10.35
2019-05-02T01:54:40.653Z,10.40
2019-05-02T01:57:08.762Z,10.45
2019-05-02T01:59:35.764Z,10.47
2019-05-02T02:02:01.992Z,10.46
2019-05-02T02:04:28.116Z,10.42
2019-05-02T02:06:54.448Z,10.31
2019-05-02T02:09:20.471Z,10.10
2019-05-02T02:11:46.562Z,9.94
2019-05-02T02:14:16.136Z,9.92
2019-05-02T02:16:40.689Z,10.03
2019-05-02T02:19:07.016Z,10.10
2019-05-02T02:21:33.513Z,10.14
2019-05-02T02:23:59.578Z,10.13
2019-05-02T02:26:25.595Z,10.02
2019-05-02T02:28:51.926Z,9.89
2019-05-02T02:31:18.541Z,9.89
2019-05-02T02:33:48.033Z,9.95
2019-05-02T02:36:12.562Z,9.95
2019-05-02T02:38:38.789Z,9.94
2019-05-02T02:41:06.518Z,9.89
2019-05-02T02:43:34.884Z,9.94
2019-05-02T02:46:01.479Z,9.98
2019-05-02T02:48:27.502Z,9.99
2019-05-02T02:50:53.538Z,9.90
2019-05-02T02:53:24.219Z,9.81
2019-05-02T02:55:47.569Z,9.81
2019-05-02T02:58:13.617Z,9.77
2019-05-02T03:00:41.440Z,9.68
2019-05-02T03:03:07.614Z,9.63
2019-05-02T03:05:33.647Z,9.58
2019-05-02T03:08:05.466Z,9.59
2019-05-02T03:10:27.828Z,9.53
2019-05-02T03:12:54.268Z,9.51
2019-05-02T03:15:21.126Z,9.58
2019-05-02T03:17:48.475Z,9.60
2019-05-02T03:20:14.460Z,9.58
2019-05-02T03:22:41.929Z,9.54
2019-05-02T03:25:08.893Z,9.53
2019-05-02T03:27:37.367Z,9.52
2019-05-02T03:30:04.223Z,9.54
2019-05-02T03:32:35.027Z,9.55
2019-05-02T03:34:58.401Z,9.50
2019-05-02T03:37:24.524Z,9.40
2019-05-02T03:39:57.219Z,9.34
2019-05-02T03:42:19.218Z,9.14
2019-05-02T03:44:55.015Z,9.17
2019-05-02T03:47:13.975Z,9.24
2019-05-02T03:49:47.825Z,9.26
2019-05-02T03:52:08.338Z,9.27
2019-05-02T03:54:34.670Z,9.28
2019-05-02T03:57:00.936Z,9.30
2019-05-02T03:59:37.544Z,9.30
2019-05-02T04:01:57.143Z,9.32
2019-05-02T04:04:23.286Z,9.37
2019-05-02T04:06:55.081Z,9.30
2019-05-02T04:09:39.057Z,9.26
2019-05-02T04:12:03.347Z,9.28
2019-05-02T04:14:38.075Z,9.25
2019-05-02T04:16:57.797Z,9.20
2019-05-02T04:19:28.737Z,9.16
2019-05-02T04:21:55.226Z,9.28
2019-05-02T04:24:24.115Z,9.32
2019-05-02T04:26:53.921Z,9.32
2019-05-02T04:29:24.393Z,9.11
2019-05-02T04:31:47.508Z,9.16
2019-05-02T04:34:15.294Z,9.18
2019-05-02T04:36:45.997Z,9.29
2019-05-02T04:39:15.095Z,9.43
2019-05-02T04:41:39.176Z,9.44
2019-05-02T04:44:09.124Z,9.49
2019-05-02T04:46:34.319Z,9.59
2019-05-02T04:49:00.311Z,9.61
2019-05-02T04:51:30.839Z,9.66
2019-05-02T04:53:54.157Z,9.71
2019-05-02T04:56:20.144Z,9.81
2019-05-02T04:58:48.998Z,9.94
2019-05-02T05:01:15.207Z,10.06
2019-05-02T05:03:41.249Z,10.18
2019-05-02T05:06:12.165Z,10.24
2019-05-02T05:08:35.228Z,10.29
2019-05-02T05:11:01.422Z,10.34
2019-05-02T05:13:29.075Z,10.38
2019-05-02T05:15:57.361Z,10.42
2019-05-02T05:18:23.541Z,10.44
2019-05-02T05:20:53.242Z,10.48
2019-05-02T05:23:21.373Z,10.51
2019-05-02T05:25:47.903Z,10.52
2019-05-02T05:28:14.389Z,10.54
2019-05-02T05:30:45.062Z,10.57
2019-05-02T05:33:10.247Z,10.59
2019-05-02T05:35:38.419Z,10.67
2019-05-02T05:38:04.418Z,10.73
2019-05-02T05:40:32.059Z,10.78
2019-05-02T05:43:02.738Z,10.77
2019-05-02T05:45:27.970Z,10.80
2019-05-02T05:47:57.567Z,10.84
2019-05-02T05:50:22.116Z,10.89
2019-05-02T05:52:48.132Z,10.93
2019-05-02T05:55:20.437Z,10.95
2019-05-02T05:57:42.331Z,10.96
2019-05-02T06:00:15.973Z,10.97
2019-05-02T06:02:52.347Z,10.98
2019-05-02T06:05:05.365Z,11.03
2019-05-02T06:07:33.662Z,11.05
2019-05-02T06:10:02.170Z,11.11
2019-05-02T06:12:30.070Z,11.14
2019-05-02T06:15:01.082Z,11.22
2019-05-02T06:17:28.315Z,11.33
2019-05-02T06:19:53.539Z,11.39
2019-05-02T06:22:24.302Z,11.57
2019-05-02T06:24:50.841Z,11.80
2019-05-02T06:27:16.305Z,11.90
2019-05-02T06:29:43.525Z,11.97
2019-05-02T06:32:13.998Z,12.04
2019-05-02T06:34:39.697Z,12.04
2019-05-02T06:37:08.231Z,12.04
2019-05-02T06:39:34.099Z,12.29
2019-05-02T06:42:00.071Z,12.37
2019-05-02T06:44:26.065Z,12.36
2019-05-02T06:46:52.025Z,12.47
2019-05-02T06:49:18.097Z,12.98
2019-05-02T06:51:44.215Z,13.43
2019-05-02T06:54:10.445Z,13.52
2019-05-02T06:56:36.491Z,13.66
2019-05-02T06:59:02.690Z,13.75
2019-05-02T07:01:28.817Z,13.69
2019-05-02T07:03:54.842Z,13.71
2019-05-02T07:06:21.141Z,14.10
2019-05-02T07:08:47.443Z,15.09
2019-05-02T07:11:13.725Z,15.09
2019-05-02T07:13:42.165Z,15.57
2019-05-02T07:16:10.338Z,15.90
2019-05-02T07:18:35.685Z,16.11
2019-05-02T07:21:02.036Z,16.20
2019-05-02T07:23:28.039Z,16.06
2019-05-02T07:25:54.060Z,16.16
2019-05-02T07:28:20.081Z,16.41
2019-05-02T07:30:46.206Z,16.61
2019-05-02T07:33:12.169Z,16.81
2019-05-02T07:35:38.258Z,16.85
2019-05-02T07:38:06.571Z,16.96
2019-05-02T07:40:32.864Z,16.88
2019-05-02T07:42:58.879Z,16.97
2019-05-02T07:45:24.903Z,17.26
2019-05-02T07:47:50.868Z,17.46
2019-05-02T07:50:17.186Z,17.16
2019-05-02T07:52:43.179Z,16.96
2019-05-02T07:55:10.272Z,17.06
2019-05-02T07:57:36.567Z,17.38
2019-05-02T08:00:10.769Z,17.44
2019-05-02T08:02:37.151Z,17.45
2019-05-02T08:05:04.246Z,17.62
2019-05-02T08:07:34.152Z,17.66
2019-05-02T08:09:58.343Z,17.64
2019-05-02T08:12:24.360Z,17.93
2019-05-02T08:14:50.387Z,17.89
2019-05-02T08:17:19.116Z,17.87
2019-05-02T08:19:44.681Z,17.77
2019-05-02T08:22:13.494Z,17.91
2019-05-02T08:24:39.330Z,17.86
2019-05-02T08:27:06.027Z,17.90
2019-05-02T08:29:32.050Z,18.15
2019-05-02T08:31:58.175Z,18.28
2019-05-02T08:34:24.319Z,18.40
2019-05-02T08:36:50.323Z,18.49
2019-05-02T08:39:16.551Z,18.37
2019-05-02T08:41:42.574Z,18.45
2019-05-02T08:44:08.802Z,18.67
2019-05-02T08:46:34.823Z,18.90
2019-05-02T08:49:00.947Z,19.07
2019-05-02T08:51:27.183Z,18.90
2019-05-02T08:53:56.751Z,19.02
2019-05-02T08:56:21.698Z,19.03
2019-05-02T08:58:49.965Z,19.15
2019-05-02T09:01:16.180Z,19.00
2019-05-02T09:03:54.808Z,19.19
2019-05-02T09:06:29.989Z,18.94
2019-05-02T09:08:56.366Z,18.85
2019-05-02T09:11:22.490Z,18.85
2019-05-02T09:13:48.911Z,18.96
2019-05-02T09:16:14.954Z,19.06
2019-05-02T09:18:50.585Z,19.02
2019-05-02T09:21:09.039Z,18.96
2019-05-02T09:23:37.016Z,18.95
2019-05-02T09:26:03.645Z,18.99
2019-05-02T09:28:29.776Z,19.17
2019-05-02T09:30:57.430Z,19.14
2019-05-02T09:33:23.779Z,19.25
2019-05-02T09:35:51.580Z,19.53
2019-05-02T09:38:17.762Z,19.64
2019-05-02T09:40:47.177Z,19.48
2019-05-02T09:43:12.284Z,19.34
2019-05-02T09:45:41.277Z,19.47
2019-05-02T09:48:08.210Z,19.67
2019-05-02T09:50:38.195Z,19.70
2019-05-02T09:53:03.833Z,19.79
2019-05-02T09:55:31.796Z,19.78
2019-05-02T09:57:57.915Z,19.88
2019-05-02T10:00:26.787Z,19.99
2019-05-02T10:02:54.365Z,19.94
2019-05-02T10:05:20.594Z,20.07
2019-05-02T10:07:48.583Z,20.05
2019-05-02T10:10:15.199Z,20.02
2019-05-02T10:12:42.732Z,20.18
2019-05-02T10:15:13.179Z,20.09
2019-05-02T10:17:42.892Z,19.87
2019-05-02T10:20:08.168Z,19.82
2019-05-02T10:22:39.349Z,20.00
2019-05-02T10:25:04.543Z,20.14
2019-05-02T10:27:32.251Z,20.43
2019-05-02T10:30:08.088Z,20.63
2019-05-02T10:32:26.501Z,20.56
2019-05-02T10:34:56.704Z,20.56
2019-05-02T10:37:21.728Z,20.69
2019-05-02T10:39:48.054Z,20.81
2019-05-02T10:42:14.073Z,20.72
2019-05-02T10:44:40.096Z,20.80
2019-05-02T10:47:06.529Z,20.86
2019-05-02T10:49:32.654Z,20.96
2019-05-02T10:51:58.675Z,20.75
2019-05-02T10:54:27.944Z,20.94
2019-05-02T10:56:52.872Z,21.04
2019-05-02T10:59:18.999Z,21.02
2019-05-02T11:01:45.021Z,20.97
2019-05-02T11:04:12.903Z,20.70
2019-05-02T11:06:42.562Z,20.69
2019-05-02T11:09:09.025Z,20.92
2019-05-02T11:11:35.357Z,21.17
2019-05-02T11:14:05.613Z,21.07
2019-05-02T11:16:29.351Z,21.05
2019-05-02T11:18:55.473Z,20.99
2019-05-02T11:21:22.902Z,21.02
2019-05-02T11:23:49.261Z,21.12
2019-05-02T11:26:23.245Z,20.96
2019-05-02T11:28:43.457Z,21.16
2019-05-02T11:31:10.215Z,21.11
2019-05-02T11:33:37.775Z,20.84
2019-05-02T11:36:03.980Z,20.80
2019-05-02T11:38:38.803Z,21.06
2019-05-02T11:40:59.446Z,20.75
2019-05-02T11:43:25.529Z,20.33
2019-05-02T11:45:54.159Z,20.12
2019-05-02T11:48:19.917Z,20.12
2019-05-02T11:50:46.059Z,20.34
2019-05-02T11:53:24.869Z,20.78
2019-05-02T11:55:41.981Z,20.87
2019-05-02T11:58:10.127Z,21.01
2019-05-02T12:00:39.666Z,21.02
2019-05-02T12:03:04.056Z,20.86
2019-05-02T12:05:31.837Z,20.77
2019-05-02T12:08:00.800Z,20.89
2019-05-02T12:10:28.037Z,20.80
2019-05-02T12:12:54.481Z,21.05
2019-05-02T12:15:21.696Z,21.03
2019-05-02T12:17:47.870Z,20.97
2019-05-02T12:20:14.464Z,20.96
2019-05-02T12:22:41.958Z,20.90
2019-05-02T12:25:08.394Z,20.83
2019-05-02T12:27:34.623Z,20.97
2019-05-02T12:30:03.119Z,21.04
2019-05-02T12:32:29.229Z,21.05
2019-05-02T12:34:55.258Z,20.80
2019-05-02T12:37:21.944Z,20.65
2019-05-02T12:39:48.073Z,20.71
2019-05-02T12:42:14.517Z,21.18
2019-05-02T12:44:42.591Z,21.65
2019-05-02T12:47:09.051Z,21.38
2019-05-02T12:49:35.292Z,21.18
2019-05-02T12:52:01.825Z,21.05
2019-05-02T12:54:29.065Z,20.84
2019-05-02T12:56:55.088Z,20.58
2019-05-02T12:59:22.544Z,20.85
2019-05-02T13:01:48.678Z,21.08
2019-05-02T13:04:14.697Z,21.28
2019-05-02T13:06:42.190Z,21.19
2019-05-02T13:09:09.743Z,20.91
2019-05-02T13:11:36.732Z,20.77
2019-05-02T13:14:04.423Z,21.02
2019-05-02T13:16:30.744Z,20.76
2019-05-02T13:19:03.027Z,20.79
2019-05-02T13:21:38.728Z,20.75
2019-05-02T13:23:54.445Z,20.71
2019-05-02T13:26:25.001Z,20.30
2019-05-02T13:28:48.641Z,20.06
2019-05-02T13:31:15.176Z,19.85
2019-05-02T13:33:42.794Z,19.76
2019-05-02T13:36:29.646Z,19.82
2019-05-02T13:38:55.771Z,20.29
2019-05-02T13:41:22.690Z,20.31
2019-05-02T13:43:48.751Z,20.27
2019-05-02T13:46:14.867Z,20.06
2019-05-02T13:48:42.899Z,19.91
2019-05-02T13:51:09.267Z,19.74
2019-05-02T13:53:35.394Z,19.87
2019-05-02T13:56:02.106Z,19.96
2019-05-02T13:58:29.149Z,20.13
2019-05-02T14:00:56.632Z,20.10
2019-05-02T14:03:22.747Z,20.11
2019-05-02T14:05:51.767Z,19.96
2019-05-02T14:08:17.059Z,19.89
2019-05-02T14:10:43.255Z,20.12
2019-05-02T14:13:09.411Z,20.28
2019-05-02T14:15:35.535Z,20.17
2019-05-02T14:18:02.508Z,20.19
2019-05-02T14:20:28.692Z,20.21
2019-05-02T14:22:55.026Z,20.24
2019-05-02T14:25:22.402Z,20.40
2019-05-02T14:27:52.404Z,20.38
2019-05-02T14:30:17.129Z,20.38
2019-05-02T14:32:43.533Z,20.54
2019-05-02T14:35:11.813Z,20.65
2019-05-02T14:37:37.856Z,20.52
2019-05-02T14:40:06.266Z,20.69
2019-05-02T14:42:32.337Z,20.70
2019-05-02T14:45:08.878Z,20.46
2019-05-02T14:47:26.940Z,20.53
2019-05-02T14:49:56.736Z,20.65
2019-05-02T14:52:22.132Z,20.75
2019-05-02T14:54:48.352Z,20.52
2019-05-02T14:57:17.036Z,20.56
2019-05-02T14:59:42.906Z,20.49
2019-05-02T15:02:09.423Z,20.38
2019-05-02T15:04:38.089Z,20.52
2019-05-02T15:07:05.068Z,20.42
2019-05-02T15:09:32.749Z,20.58
2019-05-02T15:11:59.258Z,20.50
2019-05-02T15:14:32.946Z,20.07
2019-05-02T15:16:59.822Z,20.11
2019-05-02T15:19:26.148Z,19.90
2019-05-02T15:21:55.861Z,19.88
2019-05-02T15:24:20.523Z,20.00
2019-05-02T15:26:46.954Z,19.96
2019-05-02T15:29:19.650Z,20.08
2019-05-02T15:31:42.071Z,19.89
2019-05-02T15:34:08.508Z,19.93
2019-05-02T15:36:37.128Z,20.21
2019-05-02T15:41:34.451Z,20.13
2019-05-02T15:44:01.987Z,20.27
2019-05-02T15:46:28.416Z,20.33
2019-05-02T15:48:57.090Z,20.39
2019-05-02T15:51:23.093Z,20.35
2019-05-02T15:54:01.917Z,20.29
2019-05-02T15:56:20.419Z,20.25
2019-05-02T15:58:45.628Z,20.24
2019-05-02T16:01:12.027Z,20.40
2019-05-02T16:03:43.018Z,20.55
2019-05-02T16:06:06.568Z,20.56
2019-05-02T16:08:32.793Z,20.45
2019-05-02T16:10:58.814Z,20.34
2019-05-02T16:13:24.838Z,20.25
2019-05-02T16:15:52.579Z,20.19
2019-05-02T16:18:18.726Z,20.32
2019-05-02T16:20:48.716Z,20.20
2019-05-02T16:23:13.144Z,20.14
2019-05-02T16:25:39.153Z,20.00
2019-05-02T16:28:06.174Z,19.87
2019-05-02T16:30:32.494Z,19.74
2019-05-02T16:32:58.989Z,19.46
2019-05-02T16:35:25.289Z,19.62
2019-05-02T16:37:55.860Z,19.59
2019-05-02T16:40:22.240Z,19.43
2019-05-02T16:42:49.412Z,19.33
2019-05-02T16:45:16.558Z,19.03
2019-05-02T16:47:42.854Z,18.81
2019-05-02T16:50:12.041Z,18.71
2019-05-02T16:52:42.517Z,18.57
2019-05-02T16:55:06.888Z,18.42
2019-05-02T16:57:35.169Z,18.33
2019-05-02T17:00:06.145Z,18.30
2019-05-02T17:02:32.571Z,18.23
2019-05-02T17:05:00.132Z,18.17
2019-05-02T17:07:26.627Z,18.12
2019-05-02T17:09:52.837Z,18.08
2019-05-02T17:12:18.981Z,18.04
2019-05-02T17:14:53.439Z,18.04
2019-05-02T17:17:13.160Z,17.95
2019-05-02T17:19:39.400Z,17.98
2019-05-02T17:22:07.050Z,17.92
2019-05-02T17:24:33.188Z,17.92
2019-05-02T17:26:59.209Z,17.86
2019-05-02T17:29:25.335Z,17.87
2019-05-02T17:31:57.355Z,17.78
2019-05-02T17:34:24.417Z,17.69
2019-05-02T17:36:48.627Z,17.63
2019-05-02T17:39:14.856Z,17.61
2019-05-02T17:41:42.267Z,17.59
2019-05-02T17:44:12.819Z,17.50
2019-05-02T17:46:39.156Z,17.47
2019-05-02T17:49:04.887Z,17.42
2019-05-02T17:51:33.988Z,17.36
2019-05-02T17:53:59.182Z,17.36
2019-05-02T17:56:26.436Z,17.32
2019-05-02T17:58:54.141Z,17.25
2019-05-02T18:01:21.833Z,17.34
2019-05-02T18:03:47.984Z,17.29
2019-05-02T18:06:17.234Z,17.22
2019-05-02T18:08:46.361Z,17.10
2019-05-02T18:11:10.228Z,17.01
2019-05-02T18:13:37.808Z,16.92
2019-05-02T18:16:07.771Z,16.81
2019-05-02T18:18:37.431Z,16.69
2019-05-02T18:21:02.089Z,16.54
2019-05-02T18:23:28.204Z,16.40
2019-05-02T18:25:57.387Z,16.27
2019-05-02T18:28:26.379Z,16.22
2019-05-02T18:30:52.342Z,16.13
2019-05-02T18:33:18.587Z,16.02
2019-05-02T18:35:46.906Z,15.95
2019-05-02T18:38:16.010Z,15.88
2019-05-02T18:40:42.800Z,15.79
2019-05-02T18:43:08.823Z,15.75
2019-05-02T18:45:35.097Z,15.65
2019-05-02T18:48:05.196Z,15.49
2019-05-02T18:50:32.086Z,15.45
2019-05-02T18:53:01.073Z,15.42
2019-05-02T18:55:27.742Z,15.37
2019-05-02T18:57:57.057Z,15.31
2019-05-02T19:00:23.025Z,15.27
2019-05-02T19:02:49.396Z,15.17
2019-05-02T19:05:19.205Z,15.10
2019-05-02T19:07:47.410Z,15.07
2019-05-02T19:10:12.985Z,15.03
2019-05-02T19:12:39.196Z,14.76
2019-05-02T19:15:07.158Z,14.76
2019-05-02T19:17:38.518Z,14.65
2019-05-02T19:20:06.084Z,14.65
2019-05-02T19:22:29.661Z,14.64
2019-05-02T19:24:55.887Z,14.61
2019-05-02T19:27:25.507Z,14.63
2019-05-02T19:29:51.705Z,14.63
2019-05-02T19:32:25.522Z,14.61
2019-05-02T19:34:46.530Z,14.62
2019-05-02T19:37:12.760Z,14.61
2019-05-02T19:39:47.212Z,14.57
2019-05-02T19:42:07.879Z,14.57
2019-05-02T19:44:34.321Z,14.59
2019-05-02T19:47:02.547Z,14.56
2019-05-02T19:49:29.739Z,14.54
2019-05-02T19:51:58.333Z,14.57
2019-05-02T19:54:24.443Z,14.62
2019-05-02T19:56:52.374Z,14.63
2019-05-02T19:59:24.558Z,14.64
2019-05-02T20:01:47.256Z,14.68
2019-05-02T20:04:13.343Z,14.68
2019-05-02T20:06:41.713Z,14.55
2019-05-02T20:09:08.499Z,14.57
2019-05-02T20:11:36.331Z,14.57
2019-05-02T20:14:09.075Z,14.65
2019-05-02T20:19:23.183Z,14.50
2019-05-02T20:21:45.729Z,14.44
2019-05-02T20:24:15.236Z,14.44
2019-05-02T20:26:41.658Z,14.34
2019-05-02T20:29:07.779Z,14.20
2019-05-02T20:31:34.005Z,14.16
2019-05-02T20:34:02.394Z,14.16
2019-05-02T20:36:28.419Z,14.10
2019-05-02T20:38:54.634Z,14.13
2019-05-02T20:41:22.438Z,14.06
2019-05-02T20:43:48.622Z,14.07
2019-05-02T20:46:14.749Z,14.03
2019-05-02T20:48:41.828Z,14.01
2019-05-02T20:51:08.140Z,13.98
2019-05-02T20:53:34.428Z,13.86
2019-05-02T20:56:01.785Z,14.00
2019-05-02T20:58:28.239Z,13.86
2019-05-02T21:01:05.532Z,13.89
2019-05-02T21:03:22.641Z,13.83
2019-05-02T21:05:48.765Z,13.71
2019-05-02T21:08:14.992Z,13.63
2019-05-02T21:10:41.722Z,13.63
2019-05-02T21:13:07.858Z,13.57
2019-05-02T21:15:34.073Z,13.56
2019-05-02T21:18:02.166Z,13.54
2019-05-02T21:20:28.485Z,13.54
2019-05-02T21:22:54.577Z,13.54
2019-05-02T21:25:23.007Z,13.53
2019-05-02T21:27:48.807Z,13.59
2019-05-02T21:30:18.617Z,13.61
2019-05-02T21:32:44.948Z,13.59
2019-05-02T21:35:11.913Z,13.53
2019-05-02T21:37:39.245Z,13.59
2019-05-02T21:40:06.694Z,13.59
2019-05-02T21:42:32.826Z,13.58
2019-05-02T21:44:58.852Z,13.59
2019-05-02T21:47:24.975Z,13.56
2019-05-02T21:49:52.485Z,13.54
2019-05-02T21:52:18.613Z,13.63
2019-05-02T21:54:44.808Z,13.60
2019-05-02T21:57:12.123Z,13.55
2019-05-02T21:59:38.468Z,13.49
2019-05-02T22:02:05.063Z,13.43
2019-05-02T22:04:31.778Z,13.39
2019-05-02T22:06:58.075Z,13.45
2019-05-02T22:09:24.098Z,13.42
2019-05-02T22:11:51.999Z,13.42
2019-05-02T22:14:18.802Z,13.21
2019-05-02T22:16:44.826Z,13.19
2019-05-02T22:19:10.850Z,13.27
2019-05-02T22:21:37.075Z,13.27
2019-05-02T22:24:11.195Z,13.26
2019-05-02T22:26:32.761Z,13.36
2019-05-02T22:28:59.027Z,13.48
2019-05-02T22:31:25.238Z,13.43
2019-05-02T22:33:52.818Z,13.32
2019-05-02T22:36:21.814Z,13.23
2019-05-02T22:38:48.355Z,13.20
2019-05-02T22:41:14.372Z,13.15
2019-05-02T22:43:42.170Z,13.13
2019-05-02T22:46:08.364Z,13.06
2019-05-02T22:48:34.490Z,13.10
2019-05-02T22:51:00.514Z,13.08
2019-05-02T22:53:26.546Z,13.11
2019-05-02T22:55:52.769Z,13.12
2019-05-02T22:58:19.091Z,13.18
2019-05-02T23:00:45.213Z,13.12
2019-05-02T23:03:12.523Z,13.08
2019-05-02T23:05:38.691Z,13.12
2019-05-02T23:08:04.721Z,13.06
2019-05-02T23:10:32.576Z,13.05
2019-05-02T23:12:58.971Z,13.04
2019-05-02T23:15:25.137Z,12.98
2019-05-02T23:17:52.268Z,12.96
2019-05-02T23:20:18.415Z,12.93
2019-05-02T23:22:44.436Z,13.02
2019-05-02T23:25:11.651Z,13.04
2019-05-02T23:27:39.145Z,13.01
2019-05-02T23:30:08.033Z,12.98
2019-05-02T23:32:34.162Z,12.97
2019-05-02T23:35:01.945Z,12.94
2019-05-02T23:37:28.175Z,12.93
2019-05-02T23:39:54.275Z,12.90
2019-05-02T23:42:21.827Z,12.92
2019-05-02T23:44:48.066Z,12.97
2019-05-02T23:47:14.089Z,12.97
2019-05-02T23:49:42.577Z,12.93
2019-05-02T23:52:08.754Z,12.86
2019-05-02T23:54:34.828Z,12.82
2019-05-02T23:57:00.843Z,12.80
2019-05-02T23:59:26.846Z,12.75
